Dauntless Aviation
Airports North America Canada
CJN4

Assiniboia Airport

Assiniboia, CANADA

Airport Info
Suggest Updated Information for this Airport

Location

Latitude / Longitude: 49°44'4"N / 105°56'49"W
  49°44.082'N / 105°56.82'W
  49.7347 / -105.9470

Instrument Procedures

IAPs (Instrument Approach Procedures)

  CFS: Aerodrome Information
Satellite photo at:
Airport distance calculator
From:
Weather Reports

METAR

TAF

CYMJ
38.4nm N
TAF CYMJ 281730Z 2818/2906 32020G30KT P6SM FEW040 BECMG 2820/2822 32015G25KT BECMG 2823/2901 32010G20KT FM290300 34005KT P6SM SCT200 RMK NXT FCST BY 290000Z
Safelog

 

Dauntless Aviation

© 2007-2020 Dauntless Aviation, all rights reserved
Information provided via PilotNav comes from a variety of official and unofficial data sources. As errors are possible, do not use PilotNav for primary flight planning purposes. Verify any information that you receive via PilotNav with current and canonical charts and other official documents. The material in this database is subject to database copyrights held by Dauntless Aviation and may not be copied without the express permission of Dauntless Aviation - licenses for use of part of all of this data are available for purchase; enquire via the Dauntless Aviation helpdesk. A number of mechanisms and markers exist in the database to protect against and identify infringement / copyright. Automated queries against this website are stictly prohibited, and all activity is logged and analyzed.